Decoded Metar for OISS (SHIRAZ in IRAN) (IATA:SYZ) | Meteo·Mobile Aviation Weather
aviador You're here:

OISS Decoded Metar

SHIRAZ in IRAN
Report Time2018-11-19 02:30:00
UTC Time2018-11-19 02:39:10
Flight Rules vfr VFR
WindCalm
Visibility8000 m
Phenomena:N/A
Clouds:N/A
Expected CloudBase > 400 ft AGL from Temp-Dew spread
CeilingNone
Temp04°C (ISA -1)
Dew Point03°C (93% RH)
AAT2.5°C
QNH1022 hPa
Density Alt4,554 ft
Elevation4,892 ft
Report Wrong Elevation
Raw Report
METAR OISS 190230Z 00000KT 8000 NSC 04/03 Q1022 A3019=

Extra information for OISS:More info

Metar Taf Metar & Taf Last 4 Metars F.Rules Stats Wind Profile Meteogram Temp Stats Airport Information Weather charts Add Link Nearby VenuesMetar ALERT Operation Metar Decoded Social comments